sensor_id;sensor_type;location;lat;lon;timestamp;P1;durP1;ratioP1;P2;durP2;ratioP2
7495;SDS011;3789;47.064;15.482;2023-02-15T00:01:10;27.10;;;16.67;;
7495;SDS011;3789;47.064;15.482;2023-02-15T00:03:40;25.53;;;15.20;;
7495;SDS011;3789;47.064;15.482;2023-02-15T00:06:07;24.70;;;15.13;;
7495;SDS011;3789;47.064;15.482;2023-02-15T00:08:36;27.40;;;15.87;;
7495;SDS011;3789;47.064;15.482;2023-02-15T00:11:10;26.90;;;16.17;;
7495;SDS011;3789;47.064;15.482;2023-02-15T00:14:19;27.47;;;16.07;;
7495;SDS011;3789;47.064;15.482;2023-02-15T00:16:51;25.37;;;14.93;;
7495;SDS011;3789;47.064;15.482;2023-02-15T00:19:24;28.30;;;16.13;;
7495;SDS011;3789;47.064;15.482;2023-02-15T00:21:55;25.93;;;14.83;;
7495;SDS011;3789;47.064;15.482;2023-02-15T00:24:26;27.00;;;15.00;;
7495;SDS011;3789;47.064;15.482;2023-02-15T00:26:56;28.17;;;16.43;;
7495;SDS011;3789;47.064;15.482;2023-02-15T00:29:25;23.77;;;14.97;;
7495;SDS011;3789;47.064;15.482;2023-02-15T00:31:56;30.73;;;16.37;;
7495;SDS011;3789;47.064;15.482;2023-02-15T00:34:26;27.90;;;16.10;;
7495;SDS011;3789;47.064;15.482;2023-02-15T00:37:14;30.23;;;17.57;;
7495;SDS011;3789;47.064;15.482;2023-02-15T00:39:43;27.17;;;15.57;;
7495;SDS011;3789;47.064;15.482;2023-02-15T00:42:12;29.07;;;17.27;;
7495;SDS011;3789;47.064;15.482;2023-02-15T00:44:42;28.57;;;15.50;;
7495;SDS011;3789;47.064;15.482;2023-02-15T00:47:10;30.70;;;17.03;;
7495;SDS011;3789;47.064;15.482;2023-02-15T00:49:52;27.47;;;15.87;;
7495;SDS011;3789;47.064;15.482;2023-02-15T00:52:21;28.00;;;16.53;;
7495;SDS011;3789;47.064;15.482;2023-02-15T00:54:49;26.73;;;15.67;;
7495;SDS011;3789;47.064;15.482;2023-02-15T00:57:18;29.37;;;15.97;;
7495;SDS011;3789;47.064;15.482;2023-02-15T00:59:53;26.73;;;15.73;;
7495;SDS011;3789;47.064;15.482;2023-02-15T01:02:42;25.07;;;15.17;;
7495;SDS011;3789;47.064;15.482;2023-02-15T01:05:11;23.87;;;14.73;;
7495;SDS011;3789;47.064;15.482;2023-02-15T01:07:40;30.47;;;16.60;;
7495;SDS011;3789;47.064;15.482;2023-02-15T01:10:09;27.07;;;14.67;;
7495;SDS011;3789;47.064;15.482;2023-02-15T01:12:36;24.77;;;12.13;;
7495;SDS011;3789;47.064;15.482;2023-02-15T01:15:05;37.33;;;20.37;;
7495;SDS011;3789;47.064;15.482;2023-02-15T01:17:34;31.93;;;18.27;;
7495;SDS011;3789;47.064;15.482;2023-02-15T01:20:10;40.90;;;20.07;;
7495;SDS011;3789;47.064;15.482;2023-02-15T01:22:40;46.13;;;20.73;;
7495;SDS011;3789;47.064;15.482;2023-02-15T01:25:08;51.70;;;24.27;;
7495;SDS011;3789;47.064;15.482;2023-02-15T01:27:47;44.30;;;22.73;;
7495;SDS011;3789;47.064;15.482;2023-02-15T01:30:17;66.67;;;28.63;;
7495;SDS011;3789;47.064;15.482;2023-02-15T01:32:56;64.50;;;28.50;;
7495;SDS011;3789;47.064;15.482;2023-02-15T01:35:27;58.20;;;28.80;;
7495;SDS011;3789;47.064;15.482;2023-02-15T01:37:58;58.00;;;28.97;;
7495;SDS011;3789;47.064;15.482;2023-02-15T01:40:28;59.47;;;27.43;;
7495;SDS011;3789;47.064;15.482;2023-02-15T01:43:03;53.10;;;28.23;;
7495;SDS011;3789;47.064;15.482;2023-02-15T01:45:35;57.93;;;27.87;;
7495;SDS011;3789;47.064;15.482;2023-02-15T01:50:56;58.17;;;29.23;;
7495;SDS011;3789;47.064;15.482;2023-02-15T01:53:30;57.60;;;28.87;;
7495;SDS011;3789;47.064;15.482;2023-02-15T01:56:21;47.87;;;24.83;;
7495;SDS011;3789;47.064;15.482;2023-02-15T01:58:55;68.63;;;30.57;;
7495;SDS011;3789;47.064;15.482;2023-02-15T02:01:39;53.63;;;27.50;;
7495;SDS011;3789;47.064;15.482;2023-02-15T02:07:27;54.23;;;29.17;;
7495;SDS011;3789;47.064;15.482;2023-02-15T02:09:59;54.10;;;28.13;;
7495;SDS011;3789;47.064;15.482;2023-02-15T02:12:39;59.00;;;31.80;;
7495;SDS011;3789;47.064;15.482;2023-02-15T02:15:08;61.87;;;30.63;;
7495;SDS011;3789;47.064;15.482;2023-02-15T02:23:58;55.87;;;28.20;;
7495;SDS011;3789;47.064;15.482;2023-02-15T02:27:04;46.63;;;24.73;;
7495;SDS011;3789;47.064;15.482;2023-02-15T02:33:10;47.03;;;26.87;;
7495;SDS011;3789;47.064;15.482;2023-02-15T02:36:15;43.57;;;25.03;;
7495;SDS011;3789;47.064;15.482;2023-02-15T02:39:06;41.03;;;24.07;;
7495;SDS011;3789;47.064;15.482;2023-02-15T02:45:09;38.47;;;22.70;;
7495;SDS011;3789;47.064;15.482;2023-02-15T02:47:56;41.63;;;24.57;;
7495;SDS011;3789;47.064;15.482;2023-02-15T02:50:31;38.83;;;23.83;;
7495;SDS011;3789;47.064;15.482;2023-02-15T02:52:59;33.77;;;21.53;;
7495;SDS011;3789;47.064;15.482;2023-02-15T02:55:34;38.87;;;22.77;;
7495;SDS011;3789;47.064;15.482;2023-02-15T02:58:24;39.83;;;22.97;;
7495;SDS011;3789;47.064;15.482;2023-02-15T03:01:01;37.37;;;22.67;;
7495;SDS011;3789;47.064;15.482;2023-02-15T03:03:56;35.33;;;22.57;;
7495;SDS011;3789;47.064;15.482;2023-02-15T03:09:45;39.07;;;22.30;;
7495;SDS011;3789;47.064;15.482;2023-02-15T03:12:23;38.53;;;22.50;;
7495;SDS011;3789;47.064;15.482;2023-02-15T03:15:06;37.70;;;22.43;;
7495;SDS011;3789;47.064;15.482;2023-02-15T03:17:55;34.83;;;21.73;;
7495;SDS011;3789;47.064;15.482;2023-02-15T03:20:31;39.50;;;22.47;;
7495;SDS011;3789;47.064;15.482;2023-02-15T03:23:10;36.93;;;22.20;;
7495;SDS011;3789;47.064;15.482;2023-02-15T03:25:46;32.27;;;21.03;;
7495;SDS011;3789;47.064;15.482;2023-02-15T03:28:26;35.73;;;21.33;;
7495;SDS011;3789;47.064;15.482;2023-02-15T03:31:02;36.47;;;20.80;;
7495;SDS011;3789;47.064;15.482;2023-02-15T03:33:34;35.03;;;21.53;;
7495;SDS011;3789;47.064;15.482;2023-02-15T03:36:15;33.20;;;21.27;;
7495;SDS011;3789;47.064;15.482;2023-02-15T03:39:07;32.90;;;20.20;;
7495;SDS011;3789;47.064;15.482;2023-02-15T03:44:56;34.40;;;21.17;;
7495;SDS011;3789;47.064;15.482;2023-02-15T03:47:37;35.20;;;21.20;;
7495;SDS011;3789;47.064;15.482;2023-02-15T03:50:22;31.07;;;19.67;;
7495;SDS011;3789;47.064;15.482;2023-02-15T03:53:14;35.10;;;21.93;;
7495;SDS011;3789;47.064;15.482;2023-02-15T03:55:53;32.40;;;20.30;;
7495;SDS011;3789;47.064;15.482;2023-02-15T03:58:23;35.47;;;20.80;;
7495;SDS011;3789;47.064;15.482;2023-02-15T04:01:13;34.60;;;20.90;;
7495;SDS011;3789;47.064;15.482;2023-02-15T04:07:03;35.40;;;21.63;;
7495;SDS011;3789;47.064;15.482;2023-02-15T04:09:39;37.13;;;22.83;;
7495;SDS011;3789;47.064;15.482;2023-02-15T04:12:27;37.97;;;22.17;;
7495;SDS011;3789;47.064;15.482;2023-02-15T04:14:55;31.90;;;21.20;;
7495;SDS011;3789;47.064;15.482;2023-02-15T04:17:45;35.10;;;21.40;;
7495;SDS011;3789;47.064;15.482;2023-02-15T04:20:15;36.03;;;22.47;;
7495;SDS011;3789;47.064;15.482;2023-02-15T04:23:05;37.47;;;21.93;;
7495;SDS011;3789;47.064;15.482;2023-02-15T04:25:58;31.03;;;19.90;;
7495;SDS011;3789;47.064;15.482;2023-02-15T04:28:27;35.73;;;21.17;;
7495;SDS011;3789;47.064;15.482;2023-02-15T04:30:56;31.60;;;19.47;;
7495;SDS011;3789;47.064;15.482;2023-02-15T04:33:24;32.23;;;20.70;;
7495;SDS011;3789;47.064;15.482;2023-02-15T04:35:53;36.13;;;21.13;;
7495;SDS011;3789;47.064;15.482;2023-02-15T04:38:22;32.43;;;20.53;;
7495;SDS011;3789;47.064;15.482;2023-02-15T04:40:51;35.53;;;20.83;;
7495;SDS011;3789;47.064;15.482;2023-02-15T04:43:20;37.70;;;21.63;;
7495;SDS011;3789;47.064;15.482;2023-02-15T04:45:51;29.20;;;17.50;;
7495;SDS011;3789;47.064;15.482;2023-02-15T04:48:20;33.33;;;18.90;;
7495;SDS011;3789;47.064;15.482;2023-02-15T04:50:57;34.13;;;20.37;;
7495;SDS011;3789;47.064;15.482;2023-02-15T04:53:34;35.63;;;20.97;;
7495;SDS011;3789;47.064;15.482;2023-02-15T04:56:02;34.83;;;21.57;;
7495;SDS011;3789;47.064;15.482;2023-02-15T04:58:31;34.83;;;19.63;;
7495;SDS011;3789;47.064;15.482;2023-02-15T05:01:00;42.30;;;24.40;;
7495;SDS011;3789;47.064;15.482;2023-02-15T05:03:39;36.90;;;21.60;;
7495;SDS011;3789;47.064;15.482;2023-02-15T05:06:09;34.57;;;20.63;;
7495;SDS011;3789;47.064;15.482;2023-02-15T05:08:38;34.10;;;21.70;;
7495;SDS011;3789;47.064;15.482;2023-02-15T05:11:07;31.30;;;20.53;;
7495;SDS011;3789;47.064;15.482;2023-02-15T05:13:38;39.53;;;21.87;;
7495;SDS011;3789;47.064;15.482;2023-02-15T05:16:05;39.73;;;22.10;;
7495;SDS011;3789;47.064;15.482;2023-02-15T05:18:32;35.70;;;21.53;;
7495;SDS011;3789;47.064;15.482;2023-02-15T05:21:02;37.00;;;22.07;;
7495;SDS011;3789;47.064;15.482;2023-02-15T05:23:32;34.67;;;20.20;;
7495;SDS011;3789;47.064;15.482;2023-02-15T05:26:02;34.03;;;21.93;;
7495;SDS011;3789;47.064;15.482;2023-02-15T05:28:56;34.53;;;22.03;;
7495;SDS011;3789;47.064;15.482;2023-02-15T05:31:26;27.53;;;18.57;;
7495;SDS011;3789;47.064;15.482;2023-02-15T05:33:55;32.40;;;20.20;;
7495;SDS011;3789;47.064;15.482;2023-02-15T05:36:23;33.00;;;20.70;;
7495;SDS011;3789;47.064;15.482;2023-02-15T05:38:56;32.33;;;21.20;;
7495;SDS011;3789;47.064;15.482;2023-02-15T05:41:25;31.53;;;19.93;;
7495;SDS011;3789;47.064;15.482;2023-02-15T05:43:54;36.07;;;21.37;;
7495;SDS011;3789;47.064;15.482;2023-02-15T05:46:23;34.03;;;20.67;;
7495;SDS011;3789;47.064;15.482;2023-02-15T05:48:50;34.40;;;21.00;;
7495;SDS011;3789;47.064;15.482;2023-02-15T05:51:22;32.43;;;20.60;;
7495;SDS011;3789;47.064;15.482;2023-02-15T05:53:50;32.17;;;20.23;;
7495;SDS011;3789;47.064;15.482;2023-02-15T05:56:21;30.87;;;20.03;;
7495;SDS011;3789;47.064;15.482;2023-02-15T05:59:03;32.20;;;20.33;;
7495;SDS011;3789;47.064;15.482;2023-02-15T06:01:33;34.83;;;19.80;;
7495;SDS011;3789;47.064;15.482;2023-02-15T06:04:06;27.53;;;17.97;;
7495;SDS011;3789;47.064;15.482;2023-02-15T06:06:43;31.27;;;20.37;;
7495;SDS011;3789;47.064;15.482;2023-02-15T06:09:12;28.03;;;18.97;;
7495;SDS011;3789;47.064;15.482;2023-02-15T06:11:42;34.77;;;20.47;;
7495;SDS011;3789;47.064;15.482;2023-02-15T06:14:13;30.37;;;19.83;;
7495;SDS011;3789;47.064;15.482;2023-02-15T06:16:43;29.87;;;18.43;;
7495;SDS011;3789;47.064;15.482;2023-02-15T06:19:13;30.10;;;18.87;;
7495;SDS011;3789;47.064;15.482;2023-02-15T06:21:43;31.67;;;19.23;;
7495;SDS011;3789;47.064;15.482;2023-02-15T06:24:13;24.90;;;15.30;;
7495;SDS011;3789;47.064;15.482;2023-02-15T06:26:44;22.00;;;13.87;;
7495;SDS011;3789;47.064;15.482;2023-02-15T06:29:20;23.50;;;14.13;;
7495;SDS011;3789;47.064;15.482;2023-02-15T06:31:58;19.83;;;13.80;;
7495;SDS011;3789;47.064;15.482;2023-02-15T06:34:29;23.97;;;14.20;;
7495;SDS011;3789;47.064;15.482;2023-02-15T06:36:58;23.10;;;13.93;;
7495;SDS011;3789;47.064;15.482;2023-02-15T06:39:28;21.47;;;13.97;;
7495;SDS011;3789;47.064;15.482;2023-02-15T06:41:57;22.13;;;14.13;;
7495;SDS011;3789;47.064;15.482;2023-02-15T06:44:28;25.23;;;14.47;;
7495;SDS011;3789;47.064;15.482;2023-02-15T06:46:55;23.73;;;15.13;;
7495;SDS011;3789;47.064;15.482;2023-02-15T06:49:34;21.03;;;14.37;;
7495;SDS011;3789;47.064;15.482;2023-02-15T06:52:02;23.73;;;15.10;;
7495;SDS011;3789;47.064;15.482;2023-02-15T06:54:30;22.17;;;14.37;;
7495;SDS011;3789;47.064;15.482;2023-02-15T06:56:58;24.43;;;14.40;;
7495;SDS011;3789;47.064;15.482;2023-02-15T06:59:28;25.87;;;14.57;;
7495;SDS011;3789;47.064;15.482;2023-02-15T07:01:57;26.77;;;15.97;;
7495;SDS011;3789;47.064;15.482;2023-02-15T07:04:26;25.67;;;16.20;;
7495;SDS011;3789;47.064;15.482;2023-02-15T07:06:57;26.53;;;17.13;;
7495;SDS011;3789;47.064;15.482;2023-02-15T07:09:27;26.70;;;15.23;;
7495;SDS011;3789;47.064;15.482;2023-02-15T07:12:02;31.50;;;18.20;;
7495;SDS011;3789;47.064;15.482;2023-02-15T07:14:48;26.53;;;15.87;;
7495;SDS011;3789;47.064;15.482;2023-02-15T07:17:17;27.80;;;16.83;;
7495;SDS011;3789;47.064;15.482;2023-02-15T07:20:07;28.33;;;16.87;;
7495;SDS011;3789;47.064;15.482;2023-02-15T07:22:42;34.47;;;17.57;;
7495;SDS011;3789;47.064;15.482;2023-02-15T07:25:20;31.50;;;17.90;;
7495;SDS011;3789;47.064;15.482;2023-02-15T07:27:55;31.53;;;17.67;;
7495;SDS011;3789;47.064;15.482;2023-02-15T07:30:35;28.70;;;16.70;;
7495;SDS011;3789;47.064;15.482;2023-02-15T07:33:02;30.33;;;17.87;;
7495;SDS011;3789;47.064;15.482;2023-02-15T07:35:52;28.90;;;17.43;;
7495;SDS011;3789;47.064;15.482;2023-02-15T07:38:31;28.67;;;17.67;;
7495;SDS011;3789;47.064;15.482;2023-02-15T07:41:08;32.00;;;17.13;;
7495;SDS011;3789;47.064;15.482;2023-02-15T07:43:40;28.23;;;15.93;;
7495;SDS011;3789;47.064;15.482;2023-02-15T07:46:12;27.67;;;16.33;;
7495;SDS011;3789;47.064;15.482;2023-02-15T07:48:46;29.00;;;15.87;;
7495;SDS011;3789;47.064;15.482;2023-02-15T07:51:15;18.53;;;11.57;;
7495;SDS011;3789;47.064;15.482;2023-02-15T07:53:47;42.77;;;23.50;;
7495;SDS011;3789;47.064;15.482;2023-02-15T07:56:16;44.23;;;23.50;;
7495;SDS011;3789;47.064;15.482;2023-02-15T07:58:45;48.73;;;24.37;;
7495;SDS011;3789;47.064;15.482;2023-02-15T08:01:20;50.47;;;24.27;;
7495;SDS011;3789;47.064;15.482;2023-02-15T08:04:09;52.87;;;26.20;;
7495;SDS011;3789;47.064;15.482;2023-02-15T08:06:46;61.30;;;28.80;;
7495;SDS011;3789;47.064;15.482;2023-02-15T08:09:21;55.10;;;28.27;;
7495;SDS011;3789;47.064;15.482;2023-02-15T08:11:51;53.23;;;29.47;;
7495;SDS011;3789;47.064;15.482;2023-02-15T08:14:21;55.30;;;28.80;;
7495;SDS011;3789;47.064;15.482;2023-02-15T08:16:58;58.07;;;28.77;;
7495;SDS011;3789;47.064;15.482;2023-02-15T08:19:32;54.27;;;29.20;;
7495;SDS011;3789;47.064;15.482;2023-02-15T08:22:02;52.60;;;29.40;;
7495;SDS011;3789;47.064;15.482;2023-02-15T08:24:36;49.83;;;26.80;;
7495;SDS011;3789;47.064;15.482;2023-02-15T08:27:06;49.20;;;28.23;;
7495;SDS011;3789;47.064;15.482;2023-02-15T08:29:35;48.90;;;27.40;;
7495;SDS011;3789;47.064;15.482;2023-02-15T08:32:07;40.40;;;25.50;;
7495;SDS011;3789;47.064;15.482;2023-02-15T08:34:41;43.07;;;26.00;;
7495;SDS011;3789;47.064;15.482;2023-02-15T08:37:10;43.03;;;24.90;;
7495;SDS011;3789;47.064;15.482;2023-02-15T08:39:41;35.60;;;21.30;;
7495;SDS011;3789;47.064;15.482;2023-02-15T08:42:23;42.13;;;25.57;;
7495;SDS011;3789;47.064;15.482;2023-02-15T08:45:00;38.90;;;24.33;;
7495;SDS011;3789;47.064;15.482;2023-02-15T08:47:30;38.53;;;23.53;;
7495;SDS011;3789;47.064;15.482;2023-02-15T08:49:58;35.37;;;22.03;;
7495;SDS011;3789;47.064;15.482;2023-02-15T08:52:33;35.83;;;22.60;;
7495;SDS011;3789;47.064;15.482;2023-02-15T08:55:03;39.67;;;23.83;;
7495;SDS011;3789;47.064;15.482;2023-02-15T08:57:31;36.43;;;22.87;;
7495;SDS011;3789;47.064;15.482;2023-02-15T08:59:58;38.43;;;23.20;;
7495;SDS011;3789;47.064;15.482;2023-02-15T09:02:27;40.03;;;23.13;;
7495;SDS011;3789;47.064;15.482;2023-02-15T09:04:57;33.07;;;19.57;;
7495;SDS011;3789;47.064;15.482;2023-02-15T09:07:42;37.07;;;23.37;;
7495;SDS011;3789;47.064;15.482;2023-02-15T09:10:12;34.67;;;22.47;;
7495;SDS011;3789;47.064;15.482;2023-02-15T09:12:39;34.00;;;21.00;;
7495;SDS011;3789;47.064;15.482;2023-02-15T09:15:09;34.70;;;23.30;;
7495;SDS011;3789;47.064;15.482;2023-02-15T09:17:40;38.30;;;23.20;;
7495;SDS011;3789;47.064;15.482;2023-02-15T09:20:09;32.67;;;22.73;;
7495;SDS011;3789;47.064;15.482;2023-02-15T09:22:38;37.10;;;22.17;;
7495;SDS011;3789;47.064;15.482;2023-02-15T09:25:10;38.17;;;23.23;;
7495;SDS011;3789;47.064;15.482;2023-02-15T09:27:44;33.17;;;22.13;;
7495;SDS011;3789;47.064;15.482;2023-02-15T09:30:13;34.10;;;23.43;;
7495;SDS011;3789;47.064;15.482;2023-02-15T09:32:43;34.93;;;22.77;;
7495;SDS011;3789;47.064;15.482;2023-02-15T09:35:14;26.97;;;18.07;;
7495;SDS011;3789;47.064;15.482;2023-02-15T09:37:51;26.37;;;18.20;;
7495;SDS011;3789;47.064;15.482;2023-02-15T09:40:22;29.80;;;19.50;;
7495;SDS011;3789;47.064;15.482;2023-02-15T09:43:01;27.77;;;17.20;;
7495;SDS011;3789;47.064;15.482;2023-02-15T09:46:26;28.57;;;17.50;;
7495;SDS011;3789;47.064;15.482;2023-02-15T09:49:24;31.40;;;18.80;;
7495;SDS011;3789;47.064;15.482;2023-02-15T09:55:38;35.50;;;21.17;;
7495;SDS011;3789;47.064;15.482;2023-02-15T09:58:16;32.57;;;19.80;;
7495;SDS011;3789;47.064;15.482;2023-02-15T10:10:11;33.37;;;20.13;;
7495;SDS011;3789;47.064;15.482;2023-02-15T10:16:04;40.33;;;24.33;;
7495;SDS011;3789;47.064;15.482;2023-02-15T10:19:01;40.83;;;24.43;;
7495;SDS011;3789;47.064;15.482;2023-02-15T10:21:44;41.97;;;24.60;;
7495;SDS011;3789;47.064;15.482;2023-02-15T10:24:43;37.13;;;23.67;;
7495;SDS011;3789;47.064;15.482;2023-02-15T10:27:21;38.67;;;22.37;;
7495;SDS011;3789;47.064;15.482;2023-02-15T10:30:10;39.10;;;23.37;;
7495;SDS011;3789;47.064;15.482;2023-02-15T10:33:08;35.43;;;21.60;;
7495;SDS011;3789;47.064;15.482;2023-02-15T10:42:11;38.77;;;22.93;;
7495;SDS011;3789;47.064;15.482;2023-02-15T10:47:45;33.50;;;22.73;;
7495;SDS011;3789;47.064;15.482;2023-02-15T10:53:13;35.37;;;22.43;;
7495;SDS011;3789;47.064;15.482;2023-02-15T10:56:12;36.40;;;23.40;;
7495;SDS011;3789;47.064;15.482;2023-02-15T11:05:20;42.93;;;24.17;;
7495;SDS011;3789;47.064;15.482;2023-02-15T11:08:20;38.00;;;23.77;;
7495;SDS011;3789;47.064;15.482;2023-02-15T11:11:03;34.80;;;23.90;;
7495;SDS011;3789;47.064;15.482;2023-02-15T11:13:43;38.20;;;24.27;;
7495;SDS011;3789;47.064;15.482;2023-02-15T11:16:34;40.70;;;24.60;;
7495;SDS011;3789;47.064;15.482;2023-02-15T11:19:11;40.53;;;23.77;;
7495;SDS011;3789;47.064;15.482;2023-02-15T11:21:48;35.97;;;22.60;;
7495;SDS011;3789;47.064;15.482;2023-02-15T11:24:27;38.73;;;23.73;;
7495;SDS011;3789;47.064;15.482;2023-02-15T11:27:05;33.80;;;20.67;;
7495;SDS011;3789;47.064;15.482;2023-02-15T11:30:26;34.73;;;22.43;;
7495;SDS011;3789;47.064;15.482;2023-02-15T11:33:12;37.07;;;23.37;;
7495;SDS011;3789;47.064;15.482;2023-02-15T11:35:48;38.23;;;23.70;;
7495;SDS011;3789;47.064;15.482;2023-02-15T11:38:43;37.40;;;23.90;;
7495;SDS011;3789;47.064;15.482;2023-02-15T11:41:17;40.23;;;23.43;;
7495;SDS011;3789;47.064;15.482;2023-02-15T11:44:10;35.70;;;22.93;;
7495;SDS011;3789;47.064;15.482;2023-02-15T11:46:42;35.03;;;22.70;;
7495;SDS011;3789;47.064;15.482;2023-02-15T11:49:32;37.10;;;23.43;;
7495;SDS011;3789;47.064;15.482;2023-02-15T11:52:06;33.30;;;21.40;;
7495;SDS011;3789;47.064;15.482;2023-02-15T11:54:47;34.77;;;21.13;;
7495;SDS011;3789;47.064;15.482;2023-02-15T11:57:28;37.43;;;23.73;;
7495;SDS011;3789;47.064;15.482;2023-02-15T12:03:38;38.13;;;23.43;;
7495;SDS011;3789;47.064;15.482;2023-02-15T12:06:33;35.10;;;23.20;;
7495;SDS011;3789;47.064;15.482;2023-02-15T12:09:17;41.33;;;23.90;;
7495;SDS011;3789;47.064;15.482;2023-02-15T12:12:21;31.63;;;18.47;;
7495;SDS011;3789;47.064;15.482;2023-02-15T12:14:58;39.30;;;22.40;;
7495;SDS011;3789;47.064;15.482;2023-02-15T12:17:52;35.30;;;22.27;;
7495;SDS011;3789;47.064;15.482;2023-02-15T12:20:28;39.17;;;23.53;;
7495;SDS011;3789;47.064;15.482;2023-02-15T12:23:05;35.67;;;22.50;;
7495;SDS011;3789;47.064;15.482;2023-02-15T12:25:59;38.87;;;23.33;;
7495;SDS011;3789;47.064;15.482;2023-02-15T12:31:18;38.50;;;23.43;;
7495;SDS011;3789;47.064;15.482;2023-02-15T12:33:57;29.50;;;19.70;;
7495;SDS011;3789;47.064;15.482;2023-02-15T12:36:44;40.50;;;24.17;;
7495;SDS011;3789;47.064;15.482;2023-02-15T12:39:29;36.73;;;22.93;;
7495;SDS011;3789;47.064;15.482;2023-02-15T12:42:03;41.27;;;23.70;;
7495;SDS011;3789;47.064;15.482;2023-02-15T12:45:19;36.83;;;22.93;;
7495;SDS011;3789;47.064;15.482;2023-02-15T12:48:36;38.67;;;24.07;;
7495;SDS011;3789;47.064;15.482;2023-02-15T12:50:51;33.10;;;20.43;;
7495;SDS011;3789;47.064;15.482;2023-02-15T12:53:35;40.47;;;23.50;;
7495;SDS011;3789;47.064;15.482;2023-02-15T12:56:05;37.27;;;23.83;;
7495;SDS011;3789;47.064;15.482;2023-02-15T12:58:40;36.97;;;22.67;;
7495;SDS011;3789;47.064;15.482;2023-02-15T13:01:11;35.30;;;21.87;;
7495;SDS011;3789;47.064;15.482;2023-02-15T13:04:01;38.43;;;23.10;;
7495;SDS011;3789;47.064;15.482;2023-02-15T13:06:34;38.43;;;24.17;;
7495;SDS011;3789;47.064;15.482;2023-02-15T13:12:27;38.70;;;22.57;;
7495;SDS011;3789;47.064;15.482;2023-02-15T13:15:22;41.50;;;23.57;;
7495;SDS011;3789;47.064;15.482;2023-02-15T13:17:57;39.47;;;23.17;;
7495;SDS011;3789;47.064;15.482;2023-02-15T13:20:28;35.63;;;22.53;;
7495;SDS011;3789;47.064;15.482;2023-02-15T13:23:02;37.60;;;23.77;;
7495;SDS011;3789;47.064;15.482;2023-02-15T13:25:37;41.90;;;23.30;;
7495;SDS011;3789;47.064;15.482;2023-02-15T13:28:19;38.33;;;23.67;;
7495;SDS011;3789;47.064;15.482;2023-02-15T13:31:07;44.37;;;24.00;;
7495;SDS011;3789;47.064;15.482;2023-02-15T13:33:43;35.10;;;22.07;;
7495;SDS011;3789;47.064;15.482;2023-02-15T13:36:28;39.10;;;22.33;;
7495;SDS011;3789;47.064;15.482;2023-02-15T13:42:19;35.87;;;22.57;;
7495;SDS011;3789;47.064;15.482;2023-02-15T13:47:58;38.00;;;24.50;;
7495;SDS011;3789;47.064;15.482;2023-02-15T13:56:53;37.47;;;21.80;;
7495;SDS011;3789;47.064;15.482;2023-02-15T13:59:44;35.67;;;22.90;;
7495;SDS011;3789;47.064;15.482;2023-02-15T14:12:40;35.27;;;21.90;;
7495;SDS011;3789;47.064;15.482;2023-02-15T14:17:47;36.57;;;22.03;;
7495;SDS011;3789;47.064;15.482;2023-02-15T14:32:11;42.73;;;24.33;;
7495;SDS011;3789;47.064;15.482;2023-02-15T14:34:54;34.63;;;20.93;;
7495;SDS011;3789;47.064;15.482;2023-02-15T14:38:06;42.20;;;23.13;;
7495;SDS011;3789;47.064;15.482;2023-02-15T14:41:04;38.33;;;23.30;;
7495;SDS011;3789;47.064;15.482;2023-02-15T15:01:57;30.07;;;18.33;;
7495;SDS011;3789;47.064;15.482;2023-02-15T15:10:33;30.47;;;17.30;;
7495;SDS011;3789;47.064;15.482;2023-02-15T15:19:56;31.33;;;17.77;;
7495;SDS011;3789;47.064;15.482;2023-02-15T15:22:24;38.20;;;20.17;;
7495;SDS011;3789;47.064;15.482;2023-02-15T15:28:08;34.07;;;18.33;;
7495;SDS011;3789;47.064;15.482;2023-02-15T15:43:00;17.70;;;10.73;;
7495;SDS011;3789;47.064;15.482;2023-02-15T15:46:06;24.50;;;13.47;;
7495;SDS011;3789;47.064;15.482;2023-02-15T15:49:16;22.33;;;12.97;;
7495;SDS011;3789;47.064;15.482;2023-02-15T15:51:50;30.83;;;14.70;;
7495;SDS011;3789;47.064;15.482;2023-02-15T15:54:28;41.97;;;20.63;;
7495;SDS011;3789;47.064;15.482;2023-02-15T15:57:00;31.30;;;15.70;;
7495;SDS011;3789;47.064;15.482;2023-02-15T15:59:33;29.80;;;15.23;;
7495;SDS011;3789;47.064;15.482;2023-02-15T16:02:07;35.03;;;16.40;;
7495;SDS011;3789;47.064;15.482;2023-02-15T16:04:44;32.10;;;17.53;;
7495;SDS011;3789;47.064;15.482;2023-02-15T16:07:22;56.50;;;26.90;;
7495;SDS011;3789;47.064;15.482;2023-02-15T16:10:04;45.03;;;19.73;;
7495;SDS011;3789;47.064;15.482;2023-02-15T16:12:46;51.07;;;22.37;;
7495;SDS011;3789;47.064;15.482;2023-02-15T16:15:17;57.77;;;27.80;;
7495;SDS011;3789;47.064;15.482;2023-02-15T16:17:48;54.43;;;24.43;;
7495;SDS011;3789;47.064;15.482;2023-02-15T16:20:36;51.67;;;26.17;;
7495;SDS011;3789;47.064;15.482;2023-02-15T16:23:30;49.47;;;23.03;;
7495;SDS011;3789;47.064;15.482;2023-02-15T16:29:16;50.80;;;25.13;;
7495;SDS011;3789;47.064;15.482;2023-02-15T16:37:33;60.00;;;30.40;;
7495;SDS011;3789;47.064;15.482;2023-02-15T16:40:01;73.67;;;34.70;;
7495;SDS011;3789;47.064;15.482;2023-02-15T16:42:32;58.03;;;29.50;;
7495;SDS011;3789;47.064;15.482;2023-02-15T16:45:12;61.60;;;30.63;;
7495;SDS011;3789;47.064;15.482;2023-02-15T16:47:47;71.30;;;32.17;;
7495;SDS011;3789;47.064;15.482;2023-02-15T16:50:26;63.67;;;30.90;;
7495;SDS011;3789;47.064;15.482;2023-02-15T16:53:04;65.40;;;31.90;;
7495;SDS011;3789;47.064;15.482;2023-02-15T16:55:41;57.50;;;29.13;;
7495;SDS011;3789;47.064;15.482;2023-02-15T16:58:14;60.37;;;29.27;;
7495;SDS011;3789;47.064;15.482;2023-02-15T17:00:50;55.63;;;30.43;;
7495;SDS011;3789;47.064;15.482;2023-02-15T17:03:26;50.97;;;27.40;;
7495;SDS011;3789;47.064;15.482;2023-02-15T17:05:58;55.47;;;29.80;;
7495;SDS011;3789;47.064;15.482;2023-02-15T17:09:05;56.43;;;29.83;;
7495;SDS011;3789;47.064;15.482;2023-02-15T17:11:42;61.67;;;27.93;;
7495;SDS011;3789;47.064;15.482;2023-02-15T17:14:12;59.93;;;28.97;;
7495;SDS011;3789;47.064;15.482;2023-02-15T17:17:34;50.70;;;29.07;;
7495;SDS011;3789;47.064;15.482;2023-02-15T17:22:25;48.37;;;28.97;;
7495;SDS011;3789;47.064;15.482;2023-02-15T17:25:02;54.90;;;28.53;;
7495;SDS011;3789;47.064;15.482;2023-02-15T17:27:31;45.97;;;26.23;;
7495;SDS011;3789;47.064;15.482;2023-02-15T17:30:12;52.40;;;27.77;;
7495;SDS011;3789;47.064;15.482;2023-02-15T17:32:56;49.70;;;27.63;;
7495;SDS011;3789;47.064;15.482;2023-02-15T17:35:28;48.10;;;26.93;;
7495;SDS011;3789;47.064;15.482;2023-02-15T17:38:18;51.30;;;28.30;;
7495;SDS011;3789;47.064;15.482;2023-02-15T17:40:47;49.60;;;26.37;;
7495;SDS011;3789;47.064;15.482;2023-02-15T17:43:18;54.23;;;27.87;;
7495;SDS011;3789;47.064;15.482;2023-02-15T17:45:48;50.17;;;27.97;;
7495;SDS011;3789;47.064;15.482;2023-02-15T17:48:52;49.77;;;28.43;;
7495;SDS011;3789;47.064;15.482;2023-02-15T17:51:14;50.87;;;27.57;;
7495;SDS011;3789;47.064;15.482;2023-02-15T17:53:44;55.33;;;27.57;;
7495;SDS011;3789;47.064;15.482;2023-02-15T17:56:33;55.87;;;29.63;;
7495;SDS011;3789;47.064;15.482;2023-02-15T17:59:03;53.03;;;29.13;;
7495;SDS011;3789;47.064;15.482;2023-02-15T18:01:47;42.43;;;24.00;;
7495;SDS011;3789;47.064;15.482;2023-02-15T18:04:36;67.17;;;38.53;;
7495;SDS011;3789;47.064;15.482;2023-02-15T18:07:25;67.20;;;39.40;;
7495;SDS011;3789;47.064;15.482;2023-02-15T18:10:14;53.83;;;33.47;;
7495;SDS011;3789;47.064;15.482;2023-02-15T18:13:06;61.07;;;33.57;;
7495;SDS011;3789;47.064;15.482;2023-02-15T18:15:33;48.97;;;26.67;;
7495;SDS011;3789;47.064;15.482;2023-02-15T18:18:04;53.03;;;30.33;;
7495;SDS011;3789;47.064;15.482;2023-02-15T18:20:33;52.37;;;27.17;;